Ironton, Indiana
Current Conditions -  °F | °C
As of 6:35 PM on Monday 24 Nov 2014 (Local Time) from KDCY Reporting Station
Overcast Overcast  
Wind Chill: 35°   Ceiling: 5500
Heat Index: 40°   Visibility: 10mi
Dew Point: 32°   Wind: 8mph
Humidity: 73%   Direction: 280°W
Pressure: 29.91"   Gusts: NA
Location:  38.6262°N, 86.7615°W
Report Text: KDCY 250035Z AUTO 28007KT 10SM OVC055 05/00 A2991 RMK AO2 T00450000
Loading
Personal Weather Stations






























Interactive Weather Map New forecast layout! Learn more

10-Day Weather Forecast

Advertisements
Track Severe Weather on mobile